sensor_id;sensor_type;location;lat;lon;timestamp;P1;durP1;ratioP1;P2;durP2;ratioP2
18104;SDS011;9179;50.968;3.134;2024-01-11T00:02:08;20.52;;;15.40;;
18104;SDS011;9179;50.968;3.134;2024-01-11T00:04:36;16.85;;;14.63;;
18104;SDS011;9179;50.968;3.134;2024-01-11T00:07:05;19.63;;;14.85;;
18104;SDS011;9179;50.968;3.134;2024-01-11T00:09:32;17.90;;;14.10;;
18104;SDS011;9179;50.968;3.134;2024-01-11T00:11:59;17.15;;;14.48;;
18104;SDS011;9179;50.968;3.134;2024-01-11T00:14:26;14.43;;;12.80;;
18104;SDS011;9179;50.968;3.134;2024-01-11T00:16:53;17.08;;;13.18;;
18104;SDS011;9179;50.968;3.134;2024-01-11T00:19:20;20.15;;;14.55;;
18104;SDS011;9179;50.968;3.134;2024-01-11T00:21:48;23.35;;;15.82;;
18104;SDS011;9179;50.968;3.134;2024-01-11T00:24:15;19.50;;;13.30;;
18104;SDS011;9179;50.968;3.134;2024-01-11T00:26:42;15.50;;;13.88;;
18104;SDS011;9179;50.968;3.134;2024-01-11T00:29:09;15.35;;;12.75;;
18104;SDS011;9179;50.968;3.134;2024-01-11T00:31:36;16.33;;;13.13;;
18104;SDS011;9179;50.968;3.134;2024-01-11T00:34:03;18.15;;;13.95;;
18104;SDS011;9179;50.968;3.134;2024-01-11T00:36:30;15.38;;;13.13;;
18104;SDS011;9179;50.968;3.134;2024-01-11T00:38:59;21.58;;;14.82;;
18104;SDS011;9179;50.968;3.134;2024-01-11T00:41:26;19.98;;;14.10;;
18104;SDS011;9179;50.968;3.134;2024-01-11T00:43:53;18.92;;;14.38;;
18104;SDS011;9179;50.968;3.134;2024-01-11T00:46:20;20.83;;;13.55;;
18104;SDS011;9179;50.968;3.134;2024-01-11T00:48:47;17.45;;;12.88;;
18104;SDS011;9179;50.968;3.134;2024-01-11T00:51:14;21.60;;;14.30;;
18104;SDS011;9179;50.968;3.134;2024-01-11T00:53:41;17.60;;;14.00;;
18104;SDS011;9179;50.968;3.134;2024-01-11T00:56:16;16.30;;;13.02;;
18104;SDS011;9179;50.968;3.134;2024-01-11T00:58:43;15.52;;;13.13;;
18104;SDS011;9179;50.968;3.134;2024-01-11T01:01:10;15.02;;;12.82;;
18104;SDS011;9179;50.968;3.134;2024-01-11T01:03:37;18.02;;;13.95;;
18104;SDS011;9179;50.968;3.134;2024-01-11T01:06:04;17.23;;;14.07;;
18104;SDS011;9179;50.968;3.134;2024-01-11T01:08:31;15.32;;;11.32;;
18104;SDS011;9179;50.968;3.134;2024-01-11T01:10:58;17.98;;;13.80;;
18104;SDS011;9179;50.968;3.134;2024-01-11T01:13:26;19.45;;;14.43;;
18104;SDS011;9179;50.968;3.134;2024-01-11T01:15:53;17.17;;;13.40;;
18104;SDS011;9179;50.968;3.134;2024-01-11T01:18:21;16.15;;;13.07;;
18104;SDS011;9179;50.968;3.134;2024-01-11T01:20:47;22.88;;;15.15;;
18104;SDS011;9179;50.968;3.134;2024-01-11T01:23:14;18.85;;;13.80;;
18104;SDS011;9179;50.968;3.134;2024-01-11T01:25:41;18.13;;;13.43;;
18104;SDS011;9179;50.968;3.134;2024-01-11T01:28:08;16.25;;;12.52;;
18104;SDS011;9179;50.968;3.134;2024-01-11T01:30:36;18.73;;;14.75;;
18104;SDS011;9179;50.968;3.134;2024-01-11T01:33:03;18.70;;;13.77;;
18104;SDS011;9179;50.968;3.134;2024-01-11T01:35:30;16.63;;;12.35;;
18104;SDS011;9179;50.968;3.134;2024-01-11T01:37:58;24.23;;;14.23;;
18104;SDS011;9179;50.968;3.134;2024-01-11T01:40:25;18.17;;;14.48;;
18104;SDS011;9179;50.968;3.134;2024-01-11T01:42:57;17.20;;;14.80;;
18104;SDS011;9179;50.968;3.134;2024-01-11T01:45:25;18.08;;;13.85;;
18104;SDS011;9179;50.968;3.134;2024-01-11T01:47:53;17.50;;;14.38;;
18104;SDS011;9179;50.968;3.134;2024-01-11T01:50:21;24.23;;;14.70;;
18104;SDS011;9179;50.968;3.134;2024-01-11T01:52:48;20.42;;;14.70;;
18104;SDS011;9179;50.968;3.134;2024-01-11T01:55:16;21.60;;;14.50;;
18104;SDS011;9179;50.968;3.134;2024-01-11T01:57:44;21.33;;;14.63;;
18104;SDS011;9179;50.968;3.134;2024-01-11T02:00:13;17.83;;;14.00;;
18104;SDS011;9179;50.968;3.134;2024-01-11T02:02:41;21.60;;;13.70;;
18104;SDS011;9179;50.968;3.134;2024-01-11T02:05:11;20.02;;;14.40;;
18104;SDS011;9179;50.968;3.134;2024-01-11T02:07:40;19.92;;;14.23;;
18104;SDS011;9179;50.968;3.134;2024-01-11T02:10:07;17.35;;;13.95;;
18104;SDS011;9179;50.968;3.134;2024-01-11T02:12:35;21.70;;;15.15;;
18104;SDS011;9179;50.968;3.134;2024-01-11T02:15:02;19.42;;;13.13;;
18104;SDS011;9179;50.968;3.134;2024-01-11T02:17:30;17.73;;;14.85;;
18104;SDS011;9179;50.968;3.134;2024-01-11T02:19:58;21.33;;;14.77;;
18104;SDS011;9179;50.968;3.134;2024-01-11T02:22:28;16.33;;;14.10;;
18104;SDS011;9179;50.968;3.134;2024-01-11T02:24:59;22.90;;;16.33;;
18104;SDS011;9179;50.968;3.134;2024-01-11T02:27:27;18.33;;;13.68;;
18104;SDS011;9179;50.968;3.134;2024-01-11T02:29:54;20.05;;;13.50;;
18104;SDS011;9179;50.968;3.134;2024-01-11T02:32:21;20.17;;;14.10;;
18104;SDS011;9179;50.968;3.134;2024-01-11T02:34:48;21.45;;;14.38;;
18104;SDS011;9179;50.968;3.134;2024-01-11T02:37:16;19.58;;;14.88;;
18104;SDS011;9179;50.968;3.134;2024-01-11T02:39:43;15.68;;;12.45;;
18104;SDS011;9179;50.968;3.134;2024-01-11T02:42:11;17.77;;;13.07;;
18104;SDS011;9179;50.968;3.134;2024-01-11T02:44:38;18.83;;;14.43;;
18104;SDS011;9179;50.968;3.134;2024-01-11T02:47:05;18.00;;;13.13;;
18104;SDS011;9179;50.968;3.134;2024-01-11T02:49:32;15.75;;;14.15;;
18104;SDS011;9179;50.968;3.134;2024-01-11T02:51:59;19.80;;;14.57;;
18104;SDS011;9179;50.968;3.134;2024-01-11T02:54:26;19.92;;;13.30;;
18104;SDS011;9179;50.968;3.134;2024-01-11T02:56:53;23.13;;;12.88;;
18104;SDS011;9179;50.968;3.134;2024-01-11T02:59:23;19.23;;;14.15;;
18104;SDS011;9179;50.968;3.134;2024-01-11T03:01:50;15.18;;;13.25;;
18104;SDS011;9179;50.968;3.134;2024-01-11T03:04:17;21.17;;;14.38;;
18104;SDS011;9179;50.968;3.134;2024-01-11T03:06:44;17.00;;;13.95;;
18104;SDS011;9179;50.968;3.134;2024-01-11T03:09:11;18.55;;;15.55;;
18104;SDS011;9179;50.968;3.134;2024-01-11T03:11:38;19.48;;;13.95;;
18104;SDS011;9179;50.968;3.134;2024-01-11T03:14:05;19.65;;;13.57;;
18104;SDS011;9179;50.968;3.134;2024-01-11T03:16:34;23.80;;;15.47;;
18104;SDS011;9179;50.968;3.134;2024-01-11T03:19:01;18.63;;;13.40;;
18104;SDS011;9179;50.968;3.134;2024-01-11T03:21:28;16.77;;;14.43;;
18104;SDS011;9179;50.968;3.134;2024-01-11T03:23:55;15.93;;;13.30;;
18104;SDS011;9179;50.968;3.134;2024-01-11T03:26:22;20.25;;;15.73;;
18104;SDS011;9179;50.968;3.134;2024-01-11T03:28:49;19.95;;;15.13;;
18104;SDS011;9179;50.968;3.134;2024-01-11T03:31:16;22.30;;;16.13;;
18104;SDS011;9179;50.968;3.134;2024-01-11T03:33:44;17.85;;;13.57;;
18104;SDS011;9179;50.968;3.134;2024-01-11T03:36:11;21.58;;;14.70;;
18104;SDS011;9179;50.968;3.134;2024-01-11T03:38:38;26.10;;;15.10;;
18104;SDS011;9179;50.968;3.134;2024-01-11T03:41:07;25.73;;;18.23;;
18104;SDS011;9179;50.968;3.134;2024-01-11T03:43:34;19.17;;;14.80;;
18104;SDS011;9179;50.968;3.134;2024-01-11T03:46:01;20.20;;;14.80;;
18104;SDS011;9179;50.968;3.134;2024-01-11T03:48:29;19.55;;;15.73;;
18104;SDS011;9179;50.968;3.134;2024-01-11T03:50:58;19.80;;;13.85;;
18104;SDS011;9179;50.968;3.134;2024-01-11T03:53:25;16.70;;;14.73;;
18104;SDS011;9179;50.968;3.134;2024-01-11T03:55:52;20.90;;;15.30;;
18104;SDS011;9179;50.968;3.134;2024-01-11T03:58:19;21.77;;;13.70;;
18104;SDS011;9179;50.968;3.134;2024-01-11T04:00:46;25.65;;;16.40;;
18104;SDS011;9179;50.968;3.134;2024-01-11T04:03:12;16.05;;;12.90;;
18104;SDS011;9179;50.968;3.134;2024-01-11T04:05:39;18.55;;;14.07;;
18104;SDS011;9179;50.968;3.134;2024-01-11T04:08:08;26.67;;;15.57;;
18104;SDS011;9179;50.968;3.134;2024-01-11T04:10:35;24.53;;;16.50;;
18104;SDS011;9179;50.968;3.134;2024-01-11T04:13:02;18.67;;;15.02;;
18104;SDS011;9179;50.968;3.134;2024-01-11T04:15:29;20.52;;;15.73;;
18104;SDS011;9179;50.968;3.134;2024-01-11T04:17:56;22.90;;;16.42;;
18104;SDS011;9179;50.968;3.134;2024-01-11T04:20:23;20.85;;;16.17;;
18104;SDS011;9179;50.968;3.134;2024-01-11T04:22:50;19.37;;;15.00;;
18104;SDS011;9179;50.968;3.134;2024-01-11T04:25:18;23.10;;;16.27;;
18104;SDS011;9179;50.968;3.134;2024-01-11T04:27:46;17.00;;;14.07;;
18104;SDS011;9179;50.968;3.134;2024-01-11T04:30:13;20.73;;;14.32;;
18104;SDS011;9179;50.968;3.134;2024-01-11T04:32:40;24.48;;;15.88;;
18104;SDS011;9179;50.968;3.134;2024-01-11T04:35:07;21.08;;;15.00;;
18104;SDS011;9179;50.968;3.134;2024-01-11T04:37:35;22.25;;;14.43;;
18104;SDS011;9179;50.968;3.134;2024-01-11T04:40:02;17.42;;;13.52;;
18104;SDS011;9179;50.968;3.134;2024-01-11T04:42:31;22.85;;;16.17;;
18104;SDS011;9179;50.968;3.134;2024-01-11T04:44:58;17.75;;;13.05;;
18104;SDS011;9179;50.968;3.134;2024-01-11T04:47:24;21.83;;;15.82;;
18104;SDS011;9179;50.968;3.134;2024-01-11T04:49:51;21.92;;;13.48;;
18104;SDS011;9179;50.968;3.134;2024-01-11T04:52:18;16.48;;;13.55;;
18104;SDS011;9179;50.968;3.134;2024-01-11T04:54:45;24.42;;;14.93;;
18104;SDS011;9179;50.968;3.134;2024-01-11T04:57:12;21.88;;;14.80;;
18104;SDS011;9179;50.968;3.134;2024-01-11T04:59:40;17.43;;;15.57;;
18104;SDS011;9179;50.968;3.134;2024-01-11T05:02:07;23.02;;;16.70;;
18104;SDS011;9179;50.968;3.134;2024-01-11T05:04:35;22.73;;;16.58;;
18104;SDS011;9179;50.968;3.134;2024-01-11T05:07:02;19.45;;;15.73;;
18104;SDS011;9179;50.968;3.134;2024-01-11T05:09:29;21.33;;;15.00;;
18104;SDS011;9179;50.968;3.134;2024-01-11T05:11:56;22.97;;;16.60;;
18104;SDS011;9179;50.968;3.134;2024-01-11T05:14:23;23.13;;;15.82;;
18104;SDS011;9179;50.968;3.134;2024-01-11T05:16:51;22.73;;;16.47;;
18104;SDS011;9179;50.968;3.134;2024-01-11T05:19:18;19.05;;;15.90;;
18104;SDS011;9179;50.968;3.134;2024-01-11T05:21:45;17.35;;;14.60;;
18104;SDS011;9179;50.968;3.134;2024-01-11T05:24:12;22.65;;;15.68;;
18104;SDS011;9179;50.968;3.134;2024-01-11T05:26:39;19.10;;;15.10;;
18104;SDS011;9179;50.968;3.134;2024-01-11T05:29:06;20.73;;;16.65;;
18104;SDS011;9179;50.968;3.134;2024-01-11T05:31:32;19.15;;;15.75;;
18104;SDS011;9179;50.968;3.134;2024-01-11T05:34:01;21.35;;;14.98;;
18104;SDS011;9179;50.968;3.134;2024-01-11T05:36:28;18.75;;;15.40;;
18104;SDS011;9179;50.968;3.134;2024-01-11T05:38:55;19.83;;;17.45;;
18104;SDS011;9179;50.968;3.134;2024-01-11T05:41:22;19.25;;;15.10;;
18104;SDS011;9179;50.968;3.134;2024-01-11T05:43:49;22.38;;;14.63;;
18104;SDS011;9179;50.968;3.134;2024-01-11T05:46:16;20.33;;;15.38;;
18104;SDS011;9179;50.968;3.134;2024-01-11T05:48:43;20.25;;;15.60;;
18104;SDS011;9179;50.968;3.134;2024-01-11T05:51:11;19.10;;;15.27;;
18104;SDS011;9179;50.968;3.134;2024-01-11T05:53:38;16.90;;;14.15;;
18104;SDS011;9179;50.968;3.134;2024-01-11T05:56:08;20.42;;;16.00;;
18104;SDS011;9179;50.968;3.134;2024-01-11T05:58:36;20.80;;;15.27;;
18104;SDS011;9179;50.968;3.134;2024-01-11T06:01:03;22.27;;;15.38;;
18104;SDS011;9179;50.968;3.134;2024-01-11T06:03:31;23.05;;;15.73;;
18104;SDS011;9179;50.968;3.134;2024-01-11T06:05:59;18.25;;;15.85;;
18104;SDS011;9179;50.968;3.134;2024-01-11T06:08:28;21.52;;;15.68;;
18104;SDS011;9179;50.968;3.134;2024-01-11T06:10:56;19.77;;;15.25;;
18104;SDS011;9179;50.968;3.134;2024-01-11T06:13:23;22.23;;;14.77;;
18104;SDS011;9179;50.968;3.134;2024-01-11T06:15:51;21.85;;;16.17;;
18104;SDS011;9179;50.968;3.134;2024-01-11T06:18:18;20.13;;;14.85;;
18104;SDS011;9179;50.968;3.134;2024-01-11T06:20:45;20.95;;;14.07;;
18104;SDS011;9179;50.968;3.134;2024-01-11T06:23:12;20.35;;;16.10;;
18104;SDS011;9179;50.968;3.134;2024-01-11T06:25:40;20.35;;;16.05;;
18104;SDS011;9179;50.968;3.134;2024-01-11T06:28:07;18.27;;;14.98;;
18104;SDS011;9179;50.968;3.134;2024-01-11T06:30:35;23.38;;;16.65;;
18104;SDS011;9179;50.968;3.134;2024-01-11T06:33:02;25.00;;;17.05;;
18104;SDS011;9179;50.968;3.134;2024-01-11T06:35:29;22.35;;;16.35;;
18104;SDS011;9179;50.968;3.134;2024-01-11T06:37:56;20.33;;;16.08;;
18104;SDS011;9179;50.968;3.134;2024-01-11T06:40:23;22.98;;;16.02;;
18104;SDS011;9179;50.968;3.134;2024-01-11T06:42:52;26.50;;;15.73;;
18104;SDS011;9179;50.968;3.134;2024-01-11T06:45:19;22.35;;;16.05;;
18104;SDS011;9179;50.968;3.134;2024-01-11T06:47:46;22.38;;;16.52;;
18104;SDS011;9179;50.968;3.134;2024-01-11T06:50:14;18.15;;;15.15;;
18104;SDS011;9179;50.968;3.134;2024-01-11T06:52:41;21.23;;;16.02;;
18104;SDS011;9179;50.968;3.134;2024-01-11T06:55:08;21.80;;;16.95;;
18104;SDS011;9179;50.968;3.134;2024-01-11T06:57:36;25.27;;;17.73;;
18104;SDS011;9179;50.968;3.134;2024-01-11T07:00:05;19.13;;;16.63;;
18104;SDS011;9179;50.968;3.134;2024-01-11T07:02:33;18.83;;;15.68;;
18104;SDS011;9179;50.968;3.134;2024-01-11T07:05:00;19.15;;;15.63;;
18104;SDS011;9179;50.968;3.134;2024-01-11T07:07:27;20.35;;;17.08;;
18104;SDS011;9179;50.968;3.134;2024-01-11T07:09:54;23.38;;;17.13;;
18104;SDS011;9179;50.968;3.134;2024-01-11T07:12:21;20.85;;;15.00;;
18104;SDS011;9179;50.968;3.134;2024-01-11T07:14:48;20.50;;;15.75;;
18104;SDS011;9179;50.968;3.134;2024-01-11T07:17:16;55.10;;;23.75;;
18104;SDS011;9179;50.968;3.134;2024-01-11T07:19:43;29.30;;;18.75;;
18104;SDS011;9179;50.968;3.134;2024-01-11T07:22:10;41.65;;;19.30;;
18104;SDS011;9179;50.968;3.134;2024-01-11T07:24:37;33.75;;;18.77;;
18104;SDS011;9179;50.968;3.134;2024-01-11T07:27:04;35.63;;;17.08;;
18104;SDS011;9179;50.968;3.134;2024-01-11T07:29:31;31.17;;;18.02;;
18104;SDS011;9179;50.968;3.134;2024-01-11T07:31:59;29.85;;;16.83;;
18104;SDS011;9179;50.968;3.134;2024-01-11T07:34:27;30.65;;;17.70;;
18104;SDS011;9179;50.968;3.134;2024-01-11T07:36:54;25.90;;;16.23;;
18104;SDS011;9179;50.968;3.134;2024-01-11T07:39:21;26.95;;;15.98;;
18104;SDS011;9179;50.968;3.134;2024-01-11T07:41:49;23.70;;;16.85;;
18104;SDS011;9179;50.968;3.134;2024-01-11T07:44:16;20.20;;;15.88;;
18104;SDS011;9179;50.968;3.134;2024-01-11T07:46:43;24.35;;;15.20;;
18104;SDS011;9179;50.968;3.134;2024-01-11T07:49:11;24.08;;;17.95;;
18104;SDS011;9179;50.968;3.134;2024-01-11T07:51:39;25.52;;;16.33;;
18104;SDS011;9179;50.968;3.134;2024-01-11T07:54:06;24.80;;;15.88;;
18104;SDS011;9179;50.968;3.134;2024-01-11T07:56:33;26.33;;;17.70;;
18104;SDS011;9179;50.968;3.134;2024-01-11T07:59:00;19.42;;;14.90;;
18104;SDS011;9179;50.968;3.134;2024-01-11T08:01:27;26.92;;;19.50;;
18104;SDS011;9179;50.968;3.134;2024-01-11T08:03:54;28.73;;;17.88;;
18104;SDS011;9179;50.968;3.134;2024-01-11T08:06:21;25.30;;;19.40;;
18104;SDS011;9179;50.968;3.134;2024-01-11T08:08:49;28.60;;;18.63;;
18104;SDS011;9179;50.968;3.134;2024-01-11T08:11:16;27.88;;;20.08;;
18104;SDS011;9179;50.968;3.134;2024-01-11T08:13:44;30.05;;;18.73;;
18104;SDS011;9179;50.968;3.134;2024-01-11T08:16:15;19.95;;;16.88;;
18104;SDS011;9179;50.968;3.134;2024-01-11T08:18:42;23.67;;;17.70;;
18104;SDS011;9179;50.968;3.134;2024-01-11T08:21:10;24.65;;;17.00;;
18104;SDS011;9179;50.968;3.134;2024-01-11T08:23:39;20.45;;;15.88;;
18104;SDS011;9179;50.968;3.134;2024-01-11T08:26:11;20.58;;;15.95;;
18104;SDS011;9179;50.968;3.134;2024-01-11T08:28:38;20.17;;;14.98;;
18104;SDS011;9179;50.968;3.134;2024-01-11T08:31:06;22.67;;;17.42;;
18104;SDS011;9179;50.968;3.134;2024-01-11T08:33:33;23.85;;;16.38;;
18104;SDS011;9179;50.968;3.134;2024-01-11T08:36:02;20.27;;;17.50;;
18104;SDS011;9179;50.968;3.134;2024-01-11T08:38:29;21.98;;;16.52;;
18104;SDS011;9179;50.968;3.134;2024-01-11T08:40:57;22.88;;;17.95;;
18104;SDS011;9179;50.968;3.134;2024-01-11T08:43:27;24.23;;;17.92;;
18104;SDS011;9179;50.968;3.134;2024-01-11T08:45:54;21.65;;;16.38;;
18104;SDS011;9179;50.968;3.134;2024-01-11T08:48:21;21.25;;;17.75;;
18104;SDS011;9179;50.968;3.134;2024-01-11T08:50:49;23.95;;;17.17;;
18104;SDS011;9179;50.968;3.134;2024-01-11T08:53:16;23.75;;;18.63;;
18104;SDS011;9179;50.968;3.134;2024-01-11T08:55:43;23.92;;;17.80;;
18104;SDS011;9179;50.968;3.134;2024-01-11T08:58:10;22.05;;;17.85;;
18104;SDS011;9179;50.968;3.134;2024-01-11T09:00:39;28.83;;;18.90;;
18104;SDS011;9179;50.968;3.134;2024-01-11T09:03:06;25.20;;;18.30;;
18104;SDS011;9179;50.968;3.134;2024-01-11T09:05:33;23.65;;;18.05;;
18104;SDS011;9179;50.968;3.134;2024-01-11T09:08:00;27.52;;;19.08;;
18104;SDS011;9179;50.968;3.134;2024-01-11T09:10:27;26.25;;;19.17;;
18104;SDS011;9179;50.968;3.134;2024-01-11T09:12:54;25.63;;;18.95;;
18104;SDS011;9179;50.968;3.134;2024-01-11T09:15:21;20.98;;;17.90;;
18104;SDS011;9179;50.968;3.134;2024-01-11T09:17:50;25.65;;;19.20;;
18104;SDS011;9179;50.968;3.134;2024-01-11T09:20:17;21.70;;;17.85;;
18104;SDS011;9179;50.968;3.134;2024-01-11T09:22:44;20.42;;;17.27;;
18104;SDS011;9179;50.968;3.134;2024-01-11T09:25:12;21.60;;;17.40;;
18104;SDS011;9179;50.968;3.134;2024-01-11T09:27:39;21.52;;;16.15;;
18104;SDS011;9179;50.968;3.134;2024-01-11T09:30:06;20.67;;;16.02;;
18104;SDS011;9179;50.968;3.134;2024-01-11T09:32:34;20.23;;;17.00;;
18104;SDS011;9179;50.968;3.134;2024-01-11T09:35:03;19.75;;;16.65;;
18104;SDS011;9179;50.968;3.134;2024-01-11T09:37:31;21.08;;;17.35;;
18104;SDS011;9179;50.968;3.134;2024-01-11T09:39:58;22.85;;;17.10;;
18104;SDS011;9179;50.968;3.134;2024-01-11T09:42:26;21.95;;;17.27;;
18104;SDS011;9179;50.968;3.134;2024-01-11T09:44:55;24.10;;;16.70;;
18104;SDS011;9179;50.968;3.134;2024-01-11T09:47:23;20.48;;;16.52;;
18104;SDS011;9179;50.968;3.134;2024-01-11T09:49:51;18.42;;;14.68;;
18104;SDS011;9179;50.968;3.134;2024-01-11T09:52:22;20.00;;;15.65;;
18104;SDS011;9179;50.968;3.134;2024-01-11T09:54:51;22.20;;;16.45;;
18104;SDS011;9179;50.968;3.134;2024-01-11T09:57:20;21.10;;;16.67;;
18104;SDS011;9179;50.968;3.134;2024-01-11T09:59:54;24.67;;;17.08;;
18104;SDS011;9179;50.968;3.134;2024-01-11T10:02:22;17.50;;;14.68;;
18104;SDS011;9179;50.968;3.134;2024-01-11T10:04:51;20.30;;;15.75;;
18104;SDS011;9179;50.968;3.134;2024-01-11T10:07:19;22.52;;;16.38;;
18104;SDS011;9179;50.968;3.134;2024-01-11T10:09:50;22.38;;;15.35;;
18104;SDS011;9179;50.968;3.134;2024-01-11T10:12:18;22.60;;;16.75;;
18104;SDS011;9179;50.968;3.134;2024-01-11T10:14:49;23.25;;;16.92;;
18104;SDS011;9179;50.968;3.134;2024-01-11T10:17:17;20.02;;;16.25;;
18104;SDS011;9179;50.968;3.134;2024-01-11T10:19:45;22.27;;;15.48;;
18104;SDS011;9179;50.968;3.134;2024-01-11T10:22:12;23.42;;;16.70;;
18104;SDS011;9179;50.968;3.134;2024-01-11T10:24:43;17.77;;;15.23;;
18104;SDS011;9179;50.968;3.134;2024-01-11T10:27:10;20.40;;;15.90;;
18104;SDS011;9179;50.968;3.134;2024-01-11T10:29:37;17.85;;;15.05;;
18104;SDS011;9179;50.968;3.134;2024-01-11T10:32:05;27.38;;;17.55;;
18104;SDS011;9179;50.968;3.134;2024-01-11T10:34:32;18.90;;;15.80;;
18104;SDS011;9179;50.968;3.134;2024-01-11T10:36:59;21.92;;;15.02;;
18104;SDS011;9179;50.968;3.134;2024-01-11T10:39:26;20.35;;;16.08;;
18104;SDS011;9179;50.968;3.134;2024-01-11T10:41:58;25.27;;;15.27;;
18104;SDS011;9179;50.968;3.134;2024-01-11T10:44:32;22.23;;;15.75;;
18104;SDS011;9179;50.968;3.134;2024-01-11T10:47:02;20.33;;;15.07;;
18104;SDS011;9179;50.968;3.134;2024-01-11T10:49:32;21.38;;;16.50;;
18104;SDS011;9179;50.968;3.134;2024-01-11T10:52:00;20.52;;;15.82;;
18104;SDS011;9179;50.968;3.134;2024-01-11T10:54:30;22.77;;;15.80;;
18104;SDS011;9179;50.968;3.134;2024-01-11T10:56:59;17.70;;;14.02;;
18104;SDS011;9179;50.968;3.134;2024-01-11T10:59:29;24.27;;;16.17;;
18104;SDS011;9179;50.968;3.134;2024-01-11T11:01:59;19.67;;;15.23;;
18104;SDS011;9179;50.968;3.134;2024-01-11T11:04:31;18.70;;;15.18;;
18104;SDS011;9179;50.968;3.134;2024-01-11T11:07:00;19.13;;;15.15;;
18104;SDS011;9179;50.968;3.134;2024-01-11T11:09:28;20.38;;;15.50;;
18104;SDS011;9179;50.968;3.134;2024-01-11T11:11:58;19.30;;;16.08;;
18104;SDS011;9179;50.968;3.134;2024-01-11T11:14:29;21.38;;;14.98;;
18104;SDS011;9179;50.968;3.134;2024-01-11T11:17:00;17.45;;;13.65;;
18104;SDS011;9179;50.968;3.134;2024-01-11T11:19:28;22.33;;;14.65;;
18104;SDS011;9179;50.968;3.134;2024-01-11T11:21:55;19.40;;;16.55;;
18104;SDS011;9179;50.968;3.134;2024-01-11T11:24:22;18.95;;;14.00;;
18104;SDS011;9179;50.968;3.134;2024-01-11T11:26:49;19.30;;;14.48;;
18104;SDS011;9179;50.968;3.134;2024-01-11T11:29:17;19.33;;;13.63;;
18104;SDS011;9179;50.968;3.134;2024-01-11T11:31:46;17.75;;;15.15;;
18104;SDS011;9179;50.968;3.134;2024-01-11T11:34:19;19.73;;;14.07;;
18104;SDS011;9179;50.968;3.134;2024-01-11T11:36:46;17.33;;;13.55;;
18104;SDS011;9179;50.968;3.134;2024-01-11T11:39:15;18.58;;;14.00;;
18104;SDS011;9179;50.968;3.134;2024-01-11T11:41:44;18.45;;;14.63;;
18104;SDS011;9179;50.968;3.134;2024-01-11T11:44:14;18.63;;;14.07;;
18104;SDS011;9179;50.968;3.134;2024-01-11T11:46:44;15.43;;;13.70;;
18104;SDS011;9179;50.968;3.134;2024-01-11T11:49:13;17.88;;;14.57;;
18104;SDS011;9179;50.968;3.134;2024-01-11T11:51:40;18.35;;;14.25;;
18104;SDS011;9179;50.968;3.134;2024-01-11T11:54:09;19.30;;;15.40;;
18104;SDS011;9179;50.968;3.134;2024-01-11T11:56:39;18.05;;;13.80;;
18104;SDS011;9179;50.968;3.134;2024-01-11T11:59:07;15.48;;;13.88;;
18104;SDS011;9179;50.968;3.134;2024-01-11T12:01:36;19.40;;;15.35;;
18104;SDS011;9179;50.968;3.134;2024-01-11T12:04:05;17.33;;;14.07;;
18104;SDS011;9179;50.968;3.134;2024-01-11T12:06:34;17.58;;;14.25;;
18104;SDS011;9179;50.968;3.134;2024-01-11T12:09:01;18.42;;;14.82;;
18104;SDS011;9179;50.968;3.134;2024-01-11T12:11:29;17.42;;;14.25;;
18104;SDS011;9179;50.968;3.134;2024-01-11T12:13:58;17.67;;;14.68;;
18104;SDS011;9179;50.968;3.134;2024-01-11T12:16:25;16.33;;;14.20;;
18104;SDS011;9179;50.968;3.134;2024-01-11T12:18:53;21.75;;;15.52;;
18104;SDS011;9179;50.968;3.134;2024-01-11T12:21:20;21.52;;;15.52;;
18104;SDS011;9179;50.968;3.134;2024-01-11T12:23:48;21.20;;;15.35;;
18104;SDS011;9179;50.968;3.134;2024-01-11T12:26:15;19.63;;;15.20;;
18104;SDS011;9179;50.968;3.134;2024-01-11T12:28:47;16.55;;;14.07;;
18104;SDS011;9179;50.968;3.134;2024-01-11T12:31:14;17.60;;;14.88;;
18104;SDS011;9179;50.968;3.134;2024-01-11T12:33:44;17.77;;;15.70;;
18104;SDS011;9179;50.968;3.134;2024-01-11T12:36:13;17.77;;;14.07;;
18104;SDS011;9179;50.968;3.134;2024-01-11T12:38:46;17.77;;;14.32;;
18104;SDS011;9179;50.968;3.134;2024-01-11T12:41:14;16.77;;;14.25;;
18104;SDS011;9179;50.968;3.134;2024-01-11T12:43:41;18.50;;;14.50;;
18104;SDS011;9179;50.968;3.134;2024-01-11T12:46:08;18.15;;;16.15;;
18104;SDS011;9179;50.968;3.134;2024-01-11T12:48:35;20.50;;;15.55;;
18104;SDS011;9179;50.968;3.134;2024-01-11T12:51:03;18.58;;;14.05;;
18104;SDS011;9179;50.968;3.134;2024-01-11T12:53:32;24.17;;;15.52;;
18104;SDS011;9179;50.968;3.134;2024-01-11T12:56:02;21.30;;;15.38;;
18104;SDS011;9179;50.968;3.134;2024-01-11T12:58:33;18.80;;;15.43;;
18104;SDS011;9179;50.968;3.134;2024-01-11T13:01:00;18.08;;;14.52;;
18104;SDS011;9179;50.968;3.134;2024-01-11T13:03:28;21.98;;;14.45;;
18104;SDS011;9179;50.968;3.134;2024-01-11T13:05:55;17.58;;;12.82;;
18104;SDS011;9179;50.968;3.134;2024-01-11T13:08:24;18.67;;;13.70;;
18104;SDS011;9179;50.968;3.134;2024-01-11T13:10:53;16.17;;;13.68;;
18104;SDS011;9179;50.968;3.134;2024-01-11T13:13:21;14.98;;;13.30;;
18104;SDS011;9179;50.968;3.134;2024-01-11T13:15:48;19.02;;;14.23;;
18104;SDS011;9179;50.968;3.134;2024-01-11T13:18:16;15.90;;;12.52;;
18104;SDS011;9179;50.968;3.134;2024-01-11T13:20:43;16.00;;;12.32;;
18104;SDS011;9179;50.968;3.134;2024-01-11T13:23:13;13.85;;;12.23;;
18104;SDS011;9179;50.968;3.134;2024-01-11T13:25:41;13.52;;;11.50;;
18104;SDS011;9179;50.968;3.134;2024-01-11T13:28:10;13.88;;;11.60;;
18104;SDS011;9179;50.968;3.134;2024-01-11T13:30:38;13.88;;;10.45;;
18104;SDS011;9179;50.968;3.134;2024-01-11T13:33:05;11.40;;;10.05;;
18104;SDS011;9179;50.968;3.134;2024-01-11T13:35:34;15.10;;;10.20;;
18104;SDS011;9179;50.968;3.134;2024-01-11T13:38:01;12.70;;;9.40;;
18104;SDS011;9179;50.968;3.134;2024-01-11T13:40:29;14.50;;;9.52;;
18104;SDS011;9179;50.968;3.134;2024-01-11T13:42:58;9.73;;;8.80;;
18104;SDS011;9179;50.968;3.134;2024-01-11T13:45:27;12.00;;;9.13;;
18104;SDS011;9179;50.968;3.134;2024-01-11T13:47:55;14.05;;;10.13;;
18104;SDS011;9179;50.968;3.134;2024-01-11T13:50:22;10.20;;;9.00;;
18104;SDS011;9179;50.968;3.134;2024-01-11T13:52:50;16.73;;;10.43;;
18104;SDS011;9179;50.968;3.134;2024-01-11T13:55:17;10.57;;;9.13;;
18104;SDS011;9179;50.968;3.134;2024-01-11T13:57:46;13.15;;;9.30;;
18104;SDS011;9179;50.968;3.134;2024-01-11T14:00:13;11.73;;;9.60;;
18104;SDS011;9179;50.968;3.134;2024-01-11T14:02:44;13.75;;;10.10;;
18104;SDS011;9179;50.968;3.134;2024-01-11T14:05:11;11.35;;;10.13;;
18104;SDS011;9179;50.968;3.134;2024-01-11T14:07:40;10.93;;;9.60;;
18104;SDS011;9179;50.968;3.134;2024-01-11T14:10:08;14.18;;;11.30;;
18104;SDS011;9179;50.968;3.134;2024-01-11T14:12:36;15.48;;;11.57;;
18104;SDS011;9179;50.968;3.134;2024-01-11T14:15:04;13.95;;;11.40;;
18104;SDS011;9179;50.968;3.134;2024-01-11T14:17:36;13.10;;;11.13;;
18104;SDS011;9179;50.968;3.134;2024-01-11T14:20:05;12.55;;;10.73;;
18104;SDS011;9179;50.968;3.134;2024-01-11T14:22:37;15.45;;;12.50;;
18104;SDS011;9179;50.968;3.134;2024-01-11T14:25:04;13.32;;;11.55;;
18104;SDS011;9179;50.968;3.134;2024-01-11T14:27:31;15.85;;;11.00;;
18104;SDS011;9179;50.968;3.134;2024-01-11T14:29:58;11.90;;;10.52;;
18104;SDS011;9179;50.968;3.134;2024-01-11T14:32:25;12.90;;;11.48;;
18104;SDS011;9179;50.968;3.134;2024-01-11T14:34:52;14.07;;;12.52;;
18104;SDS011;9179;50.968;3.134;2024-01-11T14:37:20;13.20;;;11.25;;
18104;SDS011;9179;50.968;3.134;2024-01-11T14:39:47;13.23;;;10.90;;